Time;durP1;ratioP1;P1;durP2;ratioP2;P2;SDS_P1;SDS_P2;PMS_P1;PMS_P2;Temp;Humidity;BMP_temperature;BMP_pressure;BME280_temperature;BME280_humidity;BME280_pressure;Samples;Min_cycle;Max_cycle;Signal;HPM_P1;HPM_P2
2021/09/26 00:08:03;;;;;;;0.82;0.82;;;22.50;99.90;;;;;;20995864;28;20201;-69
2021/09/26 00:18:07;;;;;;;0.40;0.40;;;22.20;99.90;;;;;;20992997;28;20721;-69
2021/09/26 00:28:22;;;;;;;0.65;0.65;;;22.10;99.90;;;;;;20828124;28;20201;-68
2021/09/26 00:38:26;;;;;;;1.10;0.97;;;22.00;99.90;;;;;;20828075;28;20722;-69
2021/09/26 00:48:31;;;;;;;1.00;1.00;;;21.90;99.90;;;;;;20916178;28;20733;-68
2021/09/26 00:58:36;;;;;;;0.40;0.40;;;21.90;99.90;;;;;;20991171;28;20717;-70
2021/09/26 01:08:54;;;;;;;0.40;0.35;;;21.90;99.90;;;;;;20972748;28;20220;-69
2021/09/26 01:19:07;;;;;;;0.73;0.73;;;22.00;99.90;;;;;;20981318;28;20213;-69
2021/09/26 01:29:44;;;;;;;0.80;0.40;;;22.00;99.90;;;;;;20905015;28;20217;-69
2021/09/26 01:39:56;;;;;;;0.57;0.35;;;21.80;99.90;;;;;;20902549;28;20228;-69
2021/09/26 01:50:04;;;;;;;0.93;0.93;;;21.90;99.90;;;;;;20924368;28;20228;-69
2021/09/26 02:00:12;;;;;;;0.30;0.30;;;21.90;99.90;;;;;;20992187;28;20316;-70
2021/09/26 02:10:19;;;;;;;1.42;0.90;;;21.90;99.90;;;;;;20984926;28;20203;-69
2021/09/26 02:20:24;;;;;;;1.45;0.90;;;22.00;99.90;;;;;;20965556;28;20225;-68
2021/09/26 02:30:28;;;;;;;0.95;0.88;;;22.10;99.90;;;;;;20901423;28;20243;-68
2021/09/26 02:40:34;;;;;;;0.43;0.43;;;22.00;99.90;;;;;;20900306;28;20308;-69
2021/09/26 02:50:38;;;;;;;1.00;1.00;;;22.00;99.90;;;;;;20925399;28;20690;-69
2021/09/26 03:00:45;;;;;;;7.57;2.40;;;21.80;99.90;;;;;;20982745;22;20244;-72
2021/09/26 03:10:57;;;;;;;2.95;1.75;;;21.80;99.90;;;;;;20899757;28;20190;-72
2021/09/26 03:21:03;;;;;;;2.25;0.68;;;21.90;99.90;;;;;;20898834;28;20225;-71
2021/09/26 03:31:07;;;;;;;1.50;1.40;;;21.80;99.90;;;;;;20899158;28;20289;-71
2021/09/26 03:41:12;;;;;;;1.33;0.50;;;21.70;99.90;;;;;;20898759;28;20720;-74
2021/09/26 03:51:17;;;;;;;0.77;0.77;;;22.30;99.90;;;;;;20899232;28;20263;-75
2021/09/26 04:01:23;;;;;;;1.40;0.70;;;22.30;99.90;;;;;;20959532;23;20228;-69
2021/09/26 04:11:27;;;;;;;0.20;0.10;;;22.20;99.90;;;;;;21078258;28;20253;-68
2021/09/26 04:21:32;;;;;;;1.45;0.75;;;21.90;99.90;;;;;;21076897;28;20294;-69
2021/09/26 04:31:36;;;;;;;0.50;0.50;;;21.90;99.90;;;;;;21077020;28;20200;-69
2021/09/26 04:41:41;;;;;;;2.60;1.07;;;21.40;99.90;;;;;;21075688;28;20220;-69
2021/09/26 04:51:44;;;;;;;1.53;0.80;;;21.10;99.90;;;;;;21074246;28;20231;-69
2021/09/26 05:01:50;;;;;;;1.00;0.83;;;21.00;99.90;;;;;;21055496;28;20250;-69
2021/09/26 05:11:54;;;;;;;2.87;0.93;;;20.80;99.90;;;;;;21056260;28;20560;-69
2021/09/26 05:22:00;;;;;;;0.37;0.37;;;20.90;99.90;;;;;;21072255;28;20652;-69
2021/09/26 05:32:03;;;;;;;1.20;1.13;;;20.80;99.90;;;;;;21071230;28;20192;-69
2021/09/26 05:42:09;;;;;;;0.47;0.47;;;20.80;99.90;;;;;;21071122;28;20307;-68
2021/09/26 05:52:12;;;;;;;1.03;1.03;;;20.80;99.90;;;;;;21067600;28;20390;-69
2021/09/26 06:02:22;;;;;;;3.97;1.57;;;20.90;99.90;;;;;;21067709;28;20224;-69
2021/09/26 06:12:26;;;;;;;0.50;0.50;;;20.80;99.90;;;;;;21050070;28;20679;-70
2021/09/26 06:22:31;;;;;;;0.70;0.67;;;20.90;99.90;;;;;;21066570;28;20269;-69
2021/09/26 06:32:36;;;;;;;1.07;1.03;;;21.10;99.90;;;;;;21067712;28;20196;-70
2021/09/26 06:42:41;;;;;;;1.80;1.43;;;21.50;99.90;;;;;;21081080;28;20251;-70
2021/09/26 06:52:44;;;;;;;0.75;0.75;;;21.40;99.90;;;;;;21066446;28;20253;-69
2021/09/26 07:02:51;;;;;;;1.27;1.25;;;21.90;99.90;;;;;;21064074;28;20310;-69
2021/09/26 07:12:55;;;;;;;1.17;1.08;;;22.30;99.90;;;;;;21065653;28;20199;-67
2021/09/26 07:23:02;;;;;;;1.75;1.23;;;22.70;99.90;;;;;;21058580;28;20226;-68
2021/09/26 07:33:06;;;;;;;2.13;1.98;;;23.50;99.90;;;;;;21072184;28;20275;-68
2021/09/26 07:43:11;;;;;;;2.55;2.13;;;23.50;99.90;;;;;;21061074;28;20255;-69
2021/09/26 07:53:30;;;;;;;1.50;1.20;;;23.60;99.90;;;;;;21077832;28;20211;-70
2021/09/26 08:03:35;;;;;;;4.85;1.55;;;24.00;99.90;;;;;;21072745;28;20586;-69
2021/09/26 08:13:38;;;;;;;0.85;0.63;;;24.30;99.90;;;;;;21076054;28;20204;-68
2021/09/26 08:23:43;;;;;;;1.15;1.08;;;24.60;99.90;;;;;;21075960;28;20251;-67
2021/09/26 08:33:47;;;;;;;0.30;0.22;;;24.80;99.90;;;;;;21055364;28;20606;-69
2021/09/26 08:43:53;;;;;;;0.93;0.65;;;25.80;99.90;;;;;;21072100;28;20315;-68
2021/09/26 08:53:57;;;;;;;1.15;0.93;;;26.20;99.90;;;;;;21071334;28;20204;-68
2021/09/26 09:04:02;;;;;;;1.88;0.60;;;26.60;99.90;;;;;;21069879;28;20354;-67
2021/09/26 09:14:05;;;;;;;0.68;0.68;;;26.90;99.90;;;;;;21071602;28;20278;-68
2021/09/26 09:24:24;;;;;;;0.93;0.43;;;27.30;99.90;;;;;;21051307;28;20218;-70
2021/09/26 09:34:30;;;;;;;0.85;0.60;;;27.70;99.90;;;;;;21069108;28;20228;-69
2021/09/26 09:44:40;;;;;;;1.85;0.88;;;28.00;99.90;;;;;;21067581;28;20228;-70
2021/09/26 09:54:43;;;;;;;0.32;0.32;;;28.50;99.90;;;;;;21066257;28;20204;-68
2021/09/26 10:04:49;;;;;;;0.70;0.50;;;28.60;99.90;;;;;;21064865;28;20445;-68
2021/09/26 10:14:55;;;;;;;4.28;0.63;;;28.80;99.90;;;;;;21069985;28;20231;-72
2021/09/26 10:25:00;;;;;;;0.68;0.63;;;29.20;99.90;;;;;;21067830;28;20188;-71
2021/09/26 10:35:04;;;;;;;1.05;0.93;;;29.20;99.90;;;;;;21066080;28;20696;-69
2021/09/26 10:45:10;;;;;;;1.83;1.05;;;30.00;99.90;;;;;;21065348;28;20279;-68
2021/09/26 10:55:32;;;;;;;1.90;1.00;;;30.90;99.90;;;;;;21063864;28;20271;-68
2021/09/26 11:05:40;;;;;;;4.53;1.05;;;30.50;99.90;;;;;;21063149;28;20744;-69
2021/09/26 11:16:17;;;;;;;2.00;1.35;;;31.30;99.90;;;;;;21062871;28;20247;-70
2021/09/26 11:26:22;;;;;;;1.00;0.88;;;30.70;99.90;;;;;;20921099;28;20195;-72
2021/09/26 11:36:27;;;;;;;2.42;1.27;;;30.70;99.90;;;;;;21043208;28;20220;-69
2021/09/26 11:46:33;;;;;;;8.05;2.42;;;31.10;99.90;;;;;;21060827;28;20204;-69
2021/09/26 11:56:38;;;;;;;3.03;2.75;;;31.20;99.90;;;;;;21042417;28;20216;-68
2021/09/26 12:06:46;;;;;;;7.22;2.45;;;31.60;99.90;;;;;;21060924;28;20647;-69
2021/09/26 12:16:49;;;;;;;3.17;1.55;;;30.40;99.90;;;;;;21068213;28;20220;-70
2021/09/26 12:26:54;;;;;;;2.47;2.05;;;31.20;99.90;;;;;;21074986;28;20281;-70
2021/09/26 12:36:59;;;;;;;5.40;3.22;;;32.50;99.90;;;;;;21054083;28;20692;-70
2021/09/26 12:47:07;;;;;;;2.25;1.88;;;31.60;99.90;;;;;;21071395;28;20300;-70
2021/09/26 12:57:16;;;;;;;6.40;1.58;;;32.80;99.90;;;;;;21051652;28;20222;-68
2021/09/26 13:07:27;;;;;;;5.65;2.58;;;32.60;99.90;;;;;;21069151;28;20327;-70
2021/09/26 13:17:30;;;;;;;5.47;3.25;;;31.60;99.90;;;;;;21069834;28;20242;-71
2021/09/26 13:27:39;;;;;;;4.05;2.95;;;32.70;99.90;;;;;;21067695;28;20610;-71
2021/09/26 13:37:43;;;;;;;4.80;3.42;;;33.00;99.90;;;;;;21067902;28;20258;-69
2021/09/26 13:47:49;;;;;;;6.80;3.10;;;32.20;99.90;;;;;;21066770;28;20652;-69
2021/09/26 13:57:52;;;;;;;5.18;2.95;;;32.20;99.90;;;;;;21066473;28;20243;-69
2021/09/26 14:07:57;;;;;;;4.88;3.25;;;31.60;99.90;;;;;;21065449;28;20327;-70
2021/09/26 14:18:02;;;;;;;4.95;3.03;;;31.80;99.90;;;;;;21063925;28;20941;-69
2021/09/26 14:28:08;;;;;;;3.42;2.78;;;31.10;99.90;;;;;;21064312;28;20192;-69
2021/09/26 14:38:12;;;;;;;5.50;3.53;;;31.70;99.90;;;;;;21063584;28;20325;-68
2021/09/26 14:48:17;;;;;;;9.80;3.38;;;29.80;99.90;;;;;;21062590;28;20202;-67
2021/09/26 14:58:21;;;;;;;4.32;2.53;;;29.10;99.90;;;;;;21061906;28;20545;-68
2021/09/26 15:08:26;;;;;;;4.90;2.75;;;29.20;99.90;;;;;;21061217;28;20582;-69
2021/09/26 15:18:31;;;;;;;8.98;3.08;;;29.30;99.90;;;;;;21059715;28;20212;-69
2021/09/26 15:28:36;;;;;;;12.15;3.03;;;28.80;99.90;;;;;;21041096;28;20229;-68
2021/09/26 15:38:40;;;;;;;7.45;2.92;;;27.70;99.90;;;;;;21059713;28;20248;-71
2021/09/26 15:48:45;;;;;;;2.38;1.58;;;27.10;99.90;;;;;;21064899;28;20636;-68
2021/09/26 15:58:49;;;;;;;3.95;1.33;;;26.60;99.90;;;;;;21075477;28;20708;-70
2021/09/26 16:08:55;;;;;;;3.22;2.13;;;26.30;99.90;;;;;;21075243;28;20248;-69
2021/09/26 16:18:59;;;;;;;2.47;1.52;;;26.00;99.90;;;;;;21057753;28;20224;-68
2021/09/26 16:29:06;;;;;;;2.55;1.88;;;25.80;99.90;;;;;;21073420;28;20228;-70
2021/09/26 16:39:10;;;;;;;5.15;2.50;;;25.50;99.90;;;;;;21055306;28;20224;-68
2021/09/26 16:49:16;;;;;;;3.85;2.67;;;25.30;99.90;;;;;;21080728;28;20192;-68
2021/09/26 16:59:20;;;;;;;2.42;1.92;;;24.90;99.90;;;;;;21061794;28;20322;-70
2021/09/26 17:09:26;;;;;;;5.07;3.60;;;24.70;99.90;;;;;;21070533;28;20273;-70
2021/09/26 17:19:30;;;;;;;7.63;4.35;;;24.80;99.90;;;;;;21068422;28;20223;-68
2021/09/26 17:29:35;;;;;;;4.78;3.05;;;24.60;99.90;;;;;;21068940;28;20196;-69
2021/09/26 17:39:39;;;;;;;4.72;2.13;;;24.50;99.90;;;;;;21065302;28;20302;-68
2021/09/26 17:49:44;;;;;;;1.98;1.35;;;24.10;99.90;;;;;;21067329;28;20254;-69
2021/09/26 17:59:48;;;;;;;9.45;3.97;;;23.80;99.90;;;;;;21062400;28;20227;-70
2021/09/26 18:09:53;;;;;;;3.35;3.05;;;23.60;99.90;;;;;;21061991;28;20180;-70
2021/09/26 18:19:56;;;;;;;5.60;2.80;;;23.40;99.90;;;;;;21043430;28;20273;-69
2021/09/26 18:30:02;;;;;;;8.52;2.97;;;23.30;99.90;;;;;;21063059;28;20673;-69
2021/09/26 18:40:09;;;;;;;4.28;2.45;;;23.30;99.90;;;;;;21061099;28;20223;-69
2021/09/26 18:50:15;;;;;;;1.70;1.27;;;23.20;99.90;;;;;;21062795;28;20275;-69
2021/09/26 19:00:21;;;;;;;2.58;1.73;;;23.20;99.90;;;;;;21062426;28;20235;-69
2021/09/26 19:10:29;;;;;;;1.90;1.63;;;22.90;99.90;;;;;;21062489;28;20721;-68
2021/09/26 19:20:32;;;;;;;4.27;2.03;;;22.80;99.90;;;;;;21061979;28;20747;-68
2021/09/26 19:30:41;;;;;;;1.97;1.77;;;22.40;99.90;;;;;;21060200;28;20204;-68
2021/09/26 19:40:46;;;;;;;4.47;2.13;;;22.20;99.90;;;;;;21076806;28;20326;-69
2021/09/26 19:50:52;;;;;;;1.93;1.67;;;21.90;99.90;;;;;;21077833;28;20231;-68
2021/09/26 20:00:56;;;;;;;2.33;2.07;;;21.70;99.90;;;;;;21076438;28;20259;-68
2021/09/26 20:11:03;;;;;;;2.70;1.30;;;21.40;99.90;;;;;;21075005;28;20192;-68
2021/09/26 20:21:10;;;;;;;5.47;1.97;;;21.50;99.90;;;;;;21074734;28;20266;-69
2021/09/26 20:31:18;;;;;;;3.70;1.83;;;21.60;99.90;;;;;;21081150;28;20192;-68
2021/09/26 20:41:24;;;;;;;2.40;1.60;;;21.50;99.90;;;;;;21072774;28;20292;-69
2021/09/26 20:51:29;;;;;;;3.20;1.97;;;21.40;99.90;;;;;;21073102;28;20612;-69
2021/09/26 21:01:37;;;;;;;6.77;2.23;;;21.70;99.90;;;;;;21072340;28;20260;-70
2021/09/26 21:11:42;;;;;;;3.00;1.47;;;21.60;99.90;;;;;;21052522;28;20295;-69
2021/09/26 21:21:46;;;;;;;1.63;1.03;;;21.30;99.90;;;;;;21069777;28;20242;-69
2021/09/26 21:31:51;;;;;;;1.03;0.97;;;21.40;99.90;;;;;;21069376;28;20557;-67
2021/09/26 21:41:54;;;;;;;3.00;2.07;;;21.40;99.90;;;;;;21070035;28;20273;-68
2021/09/26 21:51:59;;;;;;;1.00;0.90;;;21.30;99.90;;;;;;21070284;28;20760;-69
2021/09/26 22:02:03;;;;;;;1.90;1.13;;;21.10;99.90;;;;;;21069159;28;20737;-69
2021/09/26 22:12:09;;;;;;;2.20;1.00;;;21.40;99.90;;;;;;21069277;28;20204;-69
2021/09/26 22:22:12;;;;;;;5.57;2.77;;;21.40;99.90;;;;;;21067576;28;20564;-68
2021/09/26 22:42:34;;;;;;;2.13;1.20;;;21.20;99.90;;;;;;20501045;23;20240;-78
2021/09/26 22:52:38;;;;;;;7.40;2.27;;;20.90;99.90;;;;;;20420940;29;20229;-76
2021/09/26 23:02:46;;;;;;;6.53;2.77;;;20.90;99.90;;;;;;20397734;29;20257;-78
2021/09/26 23:12:50;;;;;;;2.47;2.27;;;20.80;99.90;;;;;;20414926;29;20293;-78
2021/09/26 23:22:55;;;;;;;1.33;0.73;;;20.80;99.90;;;;;;20416248;29;20237;-82
2021/09/26 23:33:00;;;;;;;2.33;1.50;;;21.00;99.90;;;;;;20418340;29;20711;-82
2021/09/26 23:43:09;;;;;;;1.40;1.27;;;20.80;99.90;;;;;;20415629;29;20288;-78
2021/09/26 23:53:13;;;;;;;1.67;1.23;;;20.60;99.90;;;;;;20413720;29;20208;-77
